createdAt,value
2019-05-29T00:00:05.731Z,35.43
2019-05-29T00:02:40.877Z,35.78
2019-05-29T00:05:15.791Z,36.17
2019-05-29T00:07:50.564Z,35.90
2019-05-29T00:10:25.537Z,35.80
2019-05-29T00:13:00.316Z,36.23
2019-05-29T00:15:35.135Z,35.90
2019-05-29T00:18:10.356Z,35.52
2019-05-29T00:20:45.204Z,35.50
2019-05-29T00:23:20.156Z,36.17
2019-05-29T00:25:54.977Z,36.35
2019-05-29T00:28:29.808Z,35.63
2019-05-29T00:31:05.764Z,36.33
2019-05-29T00:33:41.035Z,35.85
2019-05-29T00:36:16.514Z,35.98
2019-05-29T00:38:51.452Z,36.55
2019-05-29T00:41:26.203Z,36.15
2019-05-29T00:44:01.041Z,36.35
2019-05-29T00:46:35.952Z,36.33
2019-05-29T00:49:11.753Z,36.15
2019-05-29T00:51:46.590Z,35.92
2019-05-29T00:54:21.522Z,35.70
2019-05-29T00:56:56.512Z,36.08
2019-05-29T00:59:31.353Z,36.63
2019-05-29T01:02:06.280Z,36.15
2019-05-29T01:04:41.049Z,35.40
2019-05-29T01:07:16.296Z,36.28
2019-05-29T01:09:51.188Z,35.92
2019-05-29T01:12:26.096Z,36.23
2019-05-29T01:15:00.939Z,35.80
2019-05-29T01:17:36.678Z,35.75
2019-05-29T01:20:11.939Z,36.13
2019-05-29T01:22:46.902Z,36.00
2019-05-29T01:25:22.729Z,35.83
2019-05-29T01:27:57.612Z,35.80
2019-05-29T01:30:32.515Z,35.80
2019-05-29T01:33:07.345Z,35.90
2019-05-29T01:35:42.207Z,36.17
2019-05-29T01:38:17.230Z,36.42
2019-05-29T01:40:52.065Z,36.30
2019-05-29T01:43:27.684Z,35.92
2019-05-29T01:46:02.577Z,36.30
2019-05-29T01:48:37.369Z,36.25
2019-05-29T01:51:12.142Z,36.25
2019-05-29T01:53:46.887Z,36.63
2019-05-29T01:56:21.891Z,36.45
2019-05-29T01:58:56.883Z,36.35
2019-05-29T02:01:32.613Z,36.45
2019-05-29T02:04:07.465Z,36.17
2019-05-29T02:06:42.283Z,35.95
2019-05-29T02:09:17.993Z,36.40
2019-05-29T02:11:52.956Z,36.50
2019-05-29T02:14:27.729Z,36.13
2019-05-29T02:17:02.638Z,36.33
2019-05-29T02:19:37.537Z,36.90
2019-05-29T02:22:12.367Z,36.30
2019-05-29T02:24:47.197Z,37.25
2019-05-29T02:27:22.028Z,36.45
2019-05-29T02:30:18.700Z,36.70
2019-05-29T02:32:52.789Z,36.45
2019-05-29T02:35:29.556Z,37.13
2019-05-29T02:38:04.257Z,36.53
2019-05-29T02:40:50.977Z,36.77
2019-05-29T02:43:27.598Z,37.83
2019-05-29T02:46:02.332Z,37.30
2019-05-29T02:48:37.238Z,36.95
2019-05-29T02:51:12.659Z,37.48
2019-05-29T02:53:47.429Z,36.63
2019-05-29T02:56:22.994Z,37.67
2019-05-29T02:58:58.358Z,36.60
2019-05-29T03:01:33.284Z,37.03
2019-05-29T03:04:08.189Z,37.28
2019-05-29T03:06:43.197Z,37.17
2019-05-29T03:09:18.036Z,37.90
2019-05-29T03:11:52.941Z,37.53
2019-05-29T03:14:29.480Z,37.63
2019-05-29T03:17:04.401Z,37.10
2019-05-29T03:19:39.136Z,37.55
2019-05-29T03:22:13.900Z,38.10
2019-05-29T03:24:48.742Z,37.95
2019-05-29T03:27:23.504Z,37.93
2019-05-29T03:29:58.250Z,38.63
2019-05-29T03:32:42.241Z,37.63
2019-05-29T03:35:09.761Z,39.03
2019-05-29T03:37:44.633Z,38.15
2019-05-29T03:40:19.505Z,37.77
2019-05-29T03:42:54.554Z,38.15
2019-05-29T03:45:31.324Z,38.15
2019-05-29T03:48:15.352Z,38.38
2019-05-29T03:50:50.190Z,37.35
2019-05-29T03:53:24.942Z,38.17
2019-05-29T03:55:59.712Z,38.17
2019-05-29T03:58:35.193Z,38.48
2019-05-29T04:01:11.930Z,38.05
2019-05-29T04:03:46.868Z,38.28
2019-05-29T04:06:22.219Z,38.85
2019-05-29T04:08:57.099Z,38.70
2019-05-29T04:11:33.190Z,38.78
2019-05-29T04:14:08.270Z,38.03
2019-05-29T04:16:59.002Z,38.93
2019-05-29T04:19:20.589Z,38.55
2019-05-29T04:21:58.565Z,38.23
2019-05-29T04:24:35.974Z,38.05
2019-05-29T04:27:13.406Z,39.40
2019-05-29T04:29:49.222Z,38.85
2019-05-29T04:32:24.099Z,38.38
2019-05-29T04:34:58.924Z,38.50
2019-05-29T04:37:34.358Z,39.30
2019-05-29T04:40:10.051Z,42.33
2019-05-29T04:42:44.820Z,40.07
2019-05-29T04:45:19.719Z,39.20
2019-05-29T04:47:54.708Z,38.90
2019-05-29T04:50:31.331Z,39.00
2019-05-29T04:53:06.384Z,39.67
2019-05-29T04:55:41.257Z,38.58
2019-05-29T04:58:16.104Z,38.98
2019-05-29T05:00:58.970Z,39.92
2019-05-29T05:03:27.588Z,38.95
2019-05-29T05:06:03.607Z,38.17
2019-05-29T05:08:39.545Z,38.63
2019-05-29T05:11:15.219Z,39.65
2019-05-29T05:13:49.971Z,40.67
2019-05-29T05:16:26.596Z,38.50
2019-05-29T05:19:01.416Z,39.37
2019-05-29T05:21:36.383Z,39.33
2019-05-29T05:24:11.286Z,39.60
2019-05-29T05:26:46.156Z,39.23
2019-05-29T05:29:20.952Z,39.20
2019-05-29T05:31:55.931Z,39.25
2019-05-29T05:34:32.519Z,39.50
2019-05-29T05:37:08.532Z,40.00
2019-05-29T05:39:43.605Z,40.35
2019-05-29T05:42:18.509Z,40.73
2019-05-29T05:44:53.330Z,39.80
2019-05-29T05:47:43.465Z,41.37
2019-05-29T05:50:05.382Z,40.65
2019-05-29T05:52:40.174Z,40.23
2019-05-29T05:55:15.372Z,41.03
2019-05-29T05:57:50.144Z,39.83
2019-05-29T06:00:33.987Z,39.80
2019-05-29T06:03:09.129Z,39.25
2019-05-29T06:05:44.020Z,40.35
2019-05-29T06:08:18.796Z,39.33
2019-05-29T06:10:54.721Z,40.28
2019-05-29T06:13:29.653Z,40.52
2019-05-29T06:16:04.564Z,40.73
2019-05-29T06:18:40.345Z,40.28
2019-05-29T06:21:15.584Z,39.90
2019-05-29T06:23:50.331Z,40.45
2019-05-29T06:26:25.232Z,40.30
2019-05-29T06:29:00.095Z,41.92
2019-05-29T06:31:35.366Z,42.45
2019-05-29T06:34:11.435Z,42.75
2019-05-29T06:36:48.310Z,40.48
2019-05-29T06:39:22.928Z,41.05
2019-05-29T06:41:58.720Z,40.50
2019-05-29T06:44:34.299Z,41.98
2019-05-29T06:47:09.239Z,41.05
2019-05-29T06:49:44.370Z,40.97
2019-05-29T06:52:19.350Z,41.60
2019-05-29T06:54:54.201Z,43.33
2019-05-29T06:57:29.025Z,41.92
2019-05-29T07:00:05.202Z,41.30
2019-05-29T07:02:40.719Z,41.23
2019-05-29T07:05:15.706Z,40.97
2019-05-29T07:07:50.453Z,41.48
2019-05-29T07:10:25.357Z,41.53
2019-05-29T07:13:01.132Z,40.90
2019-05-29T07:15:38.460Z,42.78
2019-05-29T07:18:13.415Z,41.35
2019-05-29T07:20:48.267Z,41.70
2019-05-29T07:23:23.010Z,41.23
2019-05-29T07:25:57.874Z,42.43
2019-05-29T07:28:32.699Z,41.30
2019-05-29T07:31:07.531Z,41.60
2019-05-29T07:33:43.254Z,40.92
2019-05-29T07:36:18.220Z,41.30
2019-05-29T07:39:02.794Z,40.80
2019-05-29T07:41:29.536Z,41.95
2019-05-29T07:44:04.471Z,42.17
2019-05-29T07:46:39.997Z,41.37
2019-05-29T07:49:15.048Z,41.45
2019-05-29T07:51:49.890Z,41.73
2019-05-29T07:54:24.619Z,41.40
2019-05-29T07:56:59.464Z,42.90
2019-05-29T07:59:34.300Z,43.45
2019-05-29T08:02:09.360Z,42.13
2019-05-29T08:04:45.163Z,41.88
2019-05-29T08:07:20.253Z,42.53
2019-05-29T08:09:55.097Z,44.18
2019-05-29T08:12:29.968Z,43.55
2019-05-29T08:15:05.271Z,43.97
2019-05-29T08:17:41.885Z,45.05
2019-05-29T08:20:17.616Z,44.63
2019-05-29T08:22:52.514Z,46.00
2019-05-29T08:25:27.359Z,46.40
2019-05-29T08:28:02.170Z,45.28
2019-05-29T08:30:41.021Z,48.00
2019-05-29T08:33:15.713Z,46.48
2019-05-29T08:35:59.350Z,47.50
2019-05-29T08:38:27.133Z,45.80
2019-05-29T08:41:02.061Z,47.70
2019-05-29T08:43:36.884Z,47.55
2019-05-29T08:46:12.712Z,47.90
2019-05-29T08:48:48.197Z,46.42
2019-05-29T08:51:22.997Z,47.93
2019-05-29T08:53:57.827Z,48.33
2019-05-29T08:56:32.676Z,48.30
2019-05-29T08:59:07.591Z,48.28
2019-05-29T09:01:43.035Z,48.45
2019-05-29T09:04:18.197Z,47.87
2019-05-29T09:06:53.492Z,47.70
2019-05-29T09:09:28.600Z,46.92
2019-05-29T09:12:03.576Z,47.85
2019-05-29T09:14:38.407Z,48.40
2019-05-29T09:17:14.629Z,47.50
2019-05-29T09:19:49.638Z,47.48
2019-05-29T09:22:24.558Z,47.30
2019-05-29T09:24:59.444Z,47.25
2019-05-29T09:27:35.327Z,46.80
2019-05-29T09:30:10.236Z,45.12
2019-05-29T09:32:51.610Z,45.08
2019-05-29T09:35:23.272Z,46.30
2019-05-29T09:37:58.309Z,44.73
2019-05-29T09:40:33.140Z,45.50
2019-05-29T09:43:07.976Z,43.55
2019-05-29T09:45:42.748Z,43.95
2019-05-29T09:48:20.064Z,43.38
2019-05-29T09:50:54.128Z,42.90
2019-05-29T09:53:28.955Z,43.08
2019-05-29T09:56:03.918Z,42.88
2019-05-29T09:58:40.927Z,41.80
2019-05-29T10:01:23.554Z,40.88
2019-05-29T10:03:56.393Z,41.73
2019-05-29T10:06:29.951Z,40.38
2019-05-29T10:09:07.368Z,41.15
2019-05-29T10:11:42.212Z,41.40
2019-05-29T10:14:17.133Z,40.85
2019-05-29T10:16:52.125Z,41.50
2019-05-29T10:19:27.137Z,41.88
2019-05-29T10:22:03.613Z,40.98
2019-05-29T10:24:39.440Z,40.88
2019-05-29T10:27:14.207Z,41.40
2019-05-29T10:29:51.698Z,40.50
2019-05-29T10:32:25.712Z,40.38
2019-05-29T10:35:00.640Z,41.00
2019-05-29T10:37:35.661Z,41.25
2019-05-29T10:40:10.847Z,41.48
2019-05-29T10:42:46.905Z,40.20
2019-05-29T10:45:22.253Z,42.33
2019-05-29T10:47:57.080Z,42.55
2019-05-29T10:50:32.051Z,41.23
2019-05-29T10:53:06.971Z,41.70
2019-05-29T10:55:41.920Z,41.37
2019-05-29T10:58:16.829Z,43.50
2019-05-29T11:00:53.253Z,47.23
2019-05-29T11:03:28.414Z,45.10
2019-05-29T11:06:03.380Z,45.10
2019-05-29T11:08:38.146Z,44.88
2019-05-29T11:11:13.123Z,44.27
2019-05-29T11:13:48.618Z,46.18
2019-05-29T11:16:23.680Z,45.03
2019-05-29T11:18:58.581Z,42.88
2019-05-29T11:21:33.501Z,44.85
2019-05-29T11:24:08.421Z,45.20
2019-05-29T11:26:43.378Z,44.50
2019-05-29T11:29:18.207Z,42.88
2019-05-29T11:31:53.395Z,43.40
2019-05-29T11:34:29.690Z,42.67
2019-05-29T11:37:04.892Z,44.20
2019-05-29T11:39:39.639Z,43.98
2019-05-29T11:42:26.821Z,43.58
2019-05-29T11:44:50.980Z,43.28
2019-05-29T11:47:25.815Z,40.28
2019-05-29T11:50:15.377Z,41.77
2019-05-29T11:52:43.079Z,42.10
2019-05-29T11:55:14.734Z,43.47
2019-05-29T11:57:49.600Z,41.77
2019-05-29T12:00:24.621Z,40.77
2019-05-29T12:02:59.684Z,41.95
2019-05-29T12:05:34.641Z,41.28
2019-05-29T12:08:09.481Z,41.90
2019-05-29T12:10:44.403Z,40.95
2019-05-29T12:13:19.317Z,43.40
2019-05-29T12:15:54.366Z,42.48
2019-05-29T12:18:30.464Z,41.08
2019-05-29T12:21:05.417Z,41.53
2019-05-29T12:23:40.337Z,40.40
2019-05-29T12:26:22.199Z,41.42
2019-05-29T12:28:53.478Z,40.35
2019-05-29T12:31:28.108Z,40.60
2019-05-29T12:34:12.166Z,41.92
2019-05-29T12:36:39.991Z,44.40
2019-05-29T12:39:18.384Z,44.75
2019-05-29T12:41:53.608Z,44.65
2019-05-29T12:44:30.478Z,44.88
2019-05-29T12:47:05.634Z,45.78
2019-05-29T12:49:45.571Z,45.33
2019-05-29T12:52:43.660Z,44.95
2019-05-29T12:55:21.456Z,45.33
2019-05-29T12:58:00.006Z,43.02
2019-05-29T13:00:40.942Z,44.75
2019-05-29T13:03:37.088Z,42.73
2019-05-29T13:06:19.842Z,43.28
2019-05-29T13:09:06.434Z,42.40
2019-05-29T13:11:50.050Z,41.55
2019-05-29T13:14:24.980Z,41.77
2019-05-29T13:17:00.850Z,42.48
2019-05-29T13:19:47.985Z,41.35
2019-05-29T13:22:30.681Z,39.80
2019-05-29T13:25:13.959Z,40.40
2019-05-29T13:28:19.011Z,40.95
2019-05-29T13:31:02.390Z,41.08
2019-05-29T13:33:52.207Z,41.53
2019-05-29T13:36:37.555Z,39.67
2019-05-29T13:39:22.877Z,42.73
2019-05-29T13:42:14.202Z,41.75
2019-05-29T13:44:59.588Z,42.43
2019-05-29T13:47:54.038Z,42.88
2019-05-29T13:50:30.119Z,42.25
2019-05-29T13:53:10.730Z,42.15
2019-05-29T13:56:10.901Z,41.48
2019-05-29T13:58:46.743Z,42.43
2019-05-29T14:01:30.629Z,42.48
2019-05-29T14:04:16.932Z,42.10
2019-05-29T14:07:03.339Z,42.55
2019-05-29T14:10:04.046Z,41.00
2019-05-29T14:12:45.998Z,42.48
2019-05-29T14:15:29.138Z,41.87
2019-05-29T14:18:10.957Z,42.33
2019-05-29T14:20:53.420Z,42.23
2019-05-29T14:23:28.317Z,40.80
2019-05-29T14:26:06.442Z,40.43
2019-05-29T14:28:41.535Z,39.98
2019-05-29T14:31:22.153Z,40.90
2019-05-29T14:34:05.136Z,43.35
2019-05-29T14:36:47.900Z,41.48
2019-05-29T14:39:33.490Z,40.75
2019-05-29T14:42:12.887Z,41.63
2019-05-29T14:44:48.148Z,41.05
2019-05-29T14:47:24.060Z,41.28
2019-05-29T14:50:04.239Z,39.38
2019-05-29T14:52:48.058Z,39.60
2019-05-29T14:55:28.543Z,39.83
2019-05-29T14:58:12.012Z,39.73
2019-05-29T15:00:49.817Z,39.08
2019-05-29T15:03:24.658Z,39.10
2019-05-29T15:06:11.735Z,39.53
2019-05-29T15:08:51.400Z,39.78
2019-05-29T15:11:33.655Z,39.60
2019-05-29T15:14:08.792Z,40.52
2019-05-29T15:16:48.057Z,38.50
2019-05-29T15:19:32.394Z,38.58
2019-05-29T15:22:29.166Z,39.18
2019-05-29T15:25:13.422Z,38.67
2019-05-29T15:27:45.012Z,38.53
2019-05-29T15:30:25.622Z,38.70
2019-05-29T15:33:01.513Z,38.78
2019-05-29T15:35:42.411Z,38.83
2019-05-29T15:38:27.975Z,38.25
2019-05-29T15:41:09.050Z,37.95
2019-05-29T15:43:48.624Z,38.00
2019-05-29T15:46:21.743Z,38.60
2019-05-29T15:48:56.567Z,38.33
2019-05-29T15:51:31.553Z,38.98
2019-05-29T15:57:13.110Z,39.38
2019-05-29T15:59:53.240Z,39.03
2019-05-29T16:02:33.332Z,40.50
2019-05-29T16:05:19.227Z,42.30
2019-05-29T16:08:01.517Z,40.83
2019-05-29T16:10:38.321Z,39.40
2019-05-29T16:13:22.232Z,40.05
2019-05-29T16:16:03.575Z,39.83
2019-05-29T16:18:39.080Z,38.60
2019-05-29T16:21:20.432Z,38.70
2019-05-29T16:23:59.305Z,38.28
2019-05-29T16:26:34.080Z,38.60
2019-05-29T16:29:10.342Z,37.95
2019-05-29T16:31:45.275Z,38.23
2019-05-29T16:34:21.510Z,37.63
2019-05-29T16:37:02.288Z,38.28
2019-05-29T16:39:43.823Z,38.20
2019-05-29T16:42:27.257Z,38.40
2019-05-29T16:45:02.884Z,38.67
2019-05-29T16:47:38.094Z,38.00
2019-05-29T16:50:14.950Z,38.40
2019-05-29T16:52:50.122Z,38.70
2019-05-29T16:55:24.936Z,37.90
2019-05-29T16:57:59.712Z,37.63
2019-05-29T17:00:34.540Z,39.03
2019-05-29T17:03:09.592Z,38.38
2019-05-29T17:05:49.951Z,38.45
2019-05-29T17:08:30.588Z,38.75
2019-05-29T17:11:08.867Z,38.25
2019-05-29T17:13:52.083Z,39.15
2019-05-29T17:16:33.415Z,39.27
2019-05-29T17:19:09.215Z,37.73
2019-05-29T17:21:44.169Z,37.93
2019-05-29T17:24:19.088Z,38.08
2019-05-29T17:27:01.073Z,38.98
2019-05-29T17:29:40.430Z,38.13
2019-05-29T17:32:23.133Z,38.65
2019-05-29T17:35:02.345Z,38.38
2019-05-29T17:37:44.873Z,39.67
2019-05-29T17:40:25.539Z,39.43
2019-05-29T17:43:04.565Z,39.53
2019-05-29T17:45:46.819Z,38.58
2019-05-29T17:48:28.772Z,38.90
2019-05-29T17:51:04.945Z,38.20
2019-05-29T17:53:46.151Z,38.75
2019-05-29T17:56:36.271Z,38.40
2019-05-29T17:59:03.997Z,38.73
2019-05-29T18:01:38.968Z,39.73
2019-05-29T18:04:13.962Z,39.75
2019-05-29T18:06:48.775Z,38.83
2019-05-29T18:09:26.980Z,40.03
2019-05-29T18:12:06.104Z,39.45
2019-05-29T18:14:51.794Z,39.42
2019-05-29T18:17:32.658Z,39.98
2019-05-29T18:20:09.420Z,38.83
2019-05-29T18:22:49.841Z,39.00
2019-05-29T18:25:44.369Z,39.03
2019-05-29T18:28:19.944Z,38.65
2019-05-29T18:30:59.991Z,39.13
2019-05-29T18:33:35.792Z,39.83
2019-05-29T18:36:10.686Z,40.00
2019-05-29T18:38:45.604Z,38.90
2019-05-29T18:41:26.747Z,40.40
2019-05-29T18:44:10.219Z,41.20
2019-05-29T18:46:51.004Z,40.65
2019-05-29T18:49:27.098Z,39.55
2019-05-29T18:52:01.833Z,39.33
2019-05-29T18:54:36.672Z,39.70
2019-05-29T18:57:15.620Z,38.80
2019-05-29T18:59:48.112Z,39.38
2019-05-29T19:02:23.364Z,40.70
2019-05-29T19:04:58.129Z,38.58
2019-05-29T19:07:32.948Z,38.75
2019-05-29T19:10:08.637Z,37.58
2019-05-29T19:12:43.459Z,38.90
2019-05-29T19:15:18.679Z,38.20
2019-05-29T19:17:53.575Z,39.05
2019-05-29T19:20:28.679Z,38.48
2019-05-29T19:23:03.610Z,38.48
2019-05-29T19:25:38.524Z,37.90
2019-05-29T19:28:13.443Z,37.40
2019-05-29T19:30:48.380Z,38.10
2019-05-29T19:33:23.790Z,38.05
2019-05-29T19:35:58.740Z,38.50
2019-05-29T19:38:34.166Z,38.38
2019-05-29T19:41:09.190Z,38.70
2019-05-29T19:43:44.311Z,38.83
2019-05-29T19:46:19.238Z,38.23
2019-05-29T19:48:54.408Z,38.20
2019-05-29T19:51:29.338Z,38.48
2019-05-29T19:54:05.560Z,38.20
2019-05-29T19:56:40.387Z,37.95
2019-05-29T19:59:15.334Z,38.28
2019-05-29T20:01:52.844Z,40.05
2019-05-29T20:04:28.455Z,38.38
2019-05-29T20:07:03.318Z,38.10
2019-05-29T20:09:39.256Z,37.85
2019-05-29T20:12:14.102Z,38.00
2019-05-29T20:14:49.205Z,38.50
2019-05-29T20:17:23.951Z,37.58
2019-05-29T20:19:59.069Z,37.78
2019-05-29T20:22:34.674Z,38.55
2019-05-29T20:25:13.415Z,37.70
2019-05-29T20:27:46.260Z,37.85
2019-05-29T20:30:21.308Z,38.13
2019-05-29T20:32:56.110Z,37.90
2019-05-29T20:35:30.935Z,37.83
2019-05-29T20:38:06.789Z,38.02
2019-05-29T20:40:41.773Z,38.10
2019-05-29T20:43:16.609Z,37.60
2019-05-29T20:45:51.612Z,37.98
2019-05-29T20:48:26.505Z,37.17
2019-05-29T20:51:01.356Z,37.28
2019-05-29T20:53:37.413Z,37.95
2019-05-29T20:56:12.372Z,37.45
2019-05-29T20:58:48.161Z,38.02
2019-05-29T21:01:23.001Z,37.95
2019-05-29T21:03:57.980Z,37.73
2019-05-29T21:06:32.828Z,37.15
2019-05-29T21:09:07.878Z,37.42
2019-05-29T21:11:43.659Z,38.38
2019-05-29T21:14:19.571Z,39.03
2019-05-29T21:16:54.418Z,39.78
2019-05-29T21:19:30.360Z,39.15
2019-05-29T21:22:06.395Z,37.48
2019-05-29T21:24:41.208Z,37.48
2019-05-29T21:27:16.144Z,37.95
2019-05-29T21:29:50.904Z,37.28
2019-05-29T21:32:25.828Z,38.38
2019-05-29T21:35:00.592Z,37.73
2019-05-29T21:37:36.194Z,38.23
2019-05-29T21:40:11.892Z,38.58
2019-05-29T21:42:47.075Z,37.67
2019-05-29T21:45:22.039Z,38.83
2019-05-29T21:47:56.941Z,38.38
2019-05-29T21:50:31.946Z,37.98
2019-05-29T21:53:06.866Z,37.53
2019-05-29T21:55:41.696Z,37.70
2019-05-29T21:58:16.660Z,37.60
2019-05-29T22:00:52.396Z,37.78
2019-05-29T22:03:29.019Z,37.73
2019-05-29T22:06:03.929Z,36.65
2019-05-29T22:08:38.933Z,37.35
2019-05-29T22:11:13.925Z,37.13
2019-05-29T22:13:48.761Z,37.50
2019-05-29T22:16:23.657Z,36.65
2019-05-29T22:19:02.544Z,36.90
2019-05-29T22:21:35.264Z,36.73
2019-05-29T22:24:10.076Z,36.53
2019-05-29T22:26:44.917Z,36.45
2019-05-29T22:29:19.813Z,36.35
2019-05-29T22:31:55.384Z,36.40
2019-05-29T22:34:30.263Z,36.63
2019-05-29T22:37:05.192Z,36.60
2019-05-29T22:39:40.003Z,36.77
2019-05-29T22:42:14.919Z,36.65
2019-05-29T22:44:49.755Z,36.60
2019-05-29T22:47:24.682Z,36.70
2019-05-29T22:49:59.898Z,37.05
2019-05-29T22:52:34.884Z,37.80
2019-05-29T22:55:10.955Z,36.83
2019-05-29T22:57:45.723Z,36.77
2019-05-29T23:00:21.016Z,35.93
2019-05-29T23:02:56.173Z,36.85
2019-05-29T23:05:31.059Z,36.50
2019-05-29T23:08:05.976Z,36.80
2019-05-29T23:10:40.884Z,36.83
2019-05-29T23:13:15.805Z,36.30
2019-05-29T23:15:50.786Z,37.33
2019-05-29T23:18:37.589Z,36.55
2019-05-29T23:21:12.539Z,36.38
2019-05-29T23:23:47.380Z,36.98
2019-05-29T23:26:22.209Z,36.80
2019-05-29T23:28:57.039Z,36.20
2019-05-29T23:31:31.814Z,36.15
2019-05-29T23:34:06.773Z,36.77
2019-05-29T23:36:41.622Z,36.95
2019-05-29T23:39:16.527Z,36.48
2019-05-29T23:41:51.440Z,36.60
2019-05-29T23:44:26.184Z,36.25
2019-05-29T23:47:01.743Z,37.63
2019-05-29T23:49:36.823Z,36.63
2019-05-29T23:52:11.599Z,36.00
2019-05-29T23:54:46.350Z,36.40
2019-05-29T23:57:21.116Z,35.73
